Walland, Tennessee
Current Conditions -  °F | °C
As of 10:53 PM on Tuesday 25 Nov 2014 (Local Time) from KTYS Reporting Station
Overcast Overcast  
Wind Chill: 44°   Ceiling: 13000
Heat Index: 48°   Visibility: 10mi
Dew Point: 29°   Wind: 9mph
Humidity: 48%   Direction: 350°N
Pressure: 30.07"   Gusts: NA
Location:  35.73°N, 83.81°W
Report Text: KTYS 260353Z 35008KT 10SM BKN130 OVC250 09/M02 A3007 RMK AO2 SLP179 T00891017
Loading
Personal Weather Stations






























Interactive Weather Map New forecast layout! Learn more

10-Day Weather Forecast

Advertisements
Track Severe Weather on mobile